createdAt,value
2018-08-19T00:02:17.298Z,102270.13
2018-08-19T00:05:04.858Z,102271.94
2018-08-19T00:07:34.025Z,102272.98
2018-08-19T00:10:03.307Z,102271.07
2018-08-19T00:12:51.735Z,102268.45
2018-08-19T00:15:20.603Z,102265.47
2018-08-19T00:17:49.460Z,102257.45
2018-08-19T00:20:18.442Z,102257.98
2018-08-19T00:22:48.859Z,102256.55
2018-08-19T00:25:31.900Z,102263.72
2018-08-19T00:28:01.131Z,102268.20
2018-08-19T00:30:32.755Z,102261.19
2018-08-19T00:33:02.207Z,102262.70
2018-08-19T00:35:31.964Z,102257.63
2018-08-19T00:38:01.161Z,102254.66
2018-08-19T00:40:30.128Z,102257.50
2018-08-19T00:42:59.665Z,102261.20
2018-08-19T00:45:28.715Z,102260.37
2018-08-19T00:47:57.597Z,102254.91
2018-08-19T00:50:26.433Z,102259.80
2018-08-19T00:52:55.957Z,102260.56
2018-08-19T00:55:25.517Z,102257.10
2018-08-19T00:57:57.543Z,102252.83
2018-08-19T01:00:27.611Z,102254.85
2018-08-19T01:02:56.513Z,102249.70
2018-08-19T01:05:25.460Z,102250.44
2018-08-19T01:07:54.385Z,102248.83
2018-08-19T01:10:23.279Z,102247.25
2018-08-19T01:12:52.239Z,102244.56
2018-08-19T01:15:21.005Z,102242.38
2018-08-19T01:17:49.910Z,102241.44
2018-08-19T01:20:21.404Z,102243.37
2018-08-19T01:22:50.414Z,102239.48
2018-08-19T01:25:19.376Z,102239.34
2018-08-19T01:27:48.415Z,102241.28
2018-08-19T01:30:20.220Z,102234.63
2018-08-19T01:32:49.356Z,102233.75
2018-08-19T01:35:20.595Z,102238.84
2018-08-19T01:37:49.508Z,102239.38
2018-08-19T01:40:18.644Z,102241.65
2018-08-19T01:42:47.483Z,102240.78
2018-08-19T01:45:16.493Z,102237.59
2018-08-19T01:47:45.329Z,102241.38
2018-08-19T01:50:15.627Z,102239.10
2018-08-19T01:52:45.273Z,102238.40
2018-08-19T01:55:14.137Z,102234.31
2018-08-19T01:57:49.325Z,102233.98
2018-08-19T02:00:18.870Z,102225.97
2018-08-19T02:02:56.972Z,102226.48
2018-08-19T02:05:26.360Z,102225.88
2018-08-19T02:07:57.883Z,102223.88
2018-08-19T02:10:27.797Z,102224.73
2018-08-19T02:12:57.359Z,102230.55
2018-08-19T02:15:27.673Z,102232.95
2018-08-19T02:17:58.782Z,102226.87
2018-08-19T02:20:30.741Z,102233.76
2018-08-19T02:23:00.868Z,102225.63
2018-08-19T02:25:34.788Z,102226.94
2018-08-19T02:28:04.795Z,102227.81
2018-08-19T02:30:33.964Z,102229.53
2018-08-19T02:33:03.713Z,102219.31
2018-08-19T02:35:32.556Z,102220.98
2018-08-19T02:38:01.428Z,102220.18
2018-08-19T02:40:32.240Z,102222.20
2018-08-19T02:43:01.275Z,102220.25
2018-08-19T02:45:30.163Z,102225.49
2018-08-19T02:47:59.125Z,102223.37
2018-08-19T02:50:27.928Z,102219.51
2018-08-19T02:52:56.852Z,102216.85
2018-08-19T02:55:25.719Z,102217.42
2018-08-19T02:58:00.067Z,102208.78
2018-08-19T03:00:28.878Z,102205.69
2018-08-19T03:02:57.767Z,102201.19
2018-08-19T03:05:26.680Z,102199.23
2018-08-19T03:07:55.544Z,102199.23
2018-08-19T03:10:24.380Z,102197.45
2018-08-19T03:12:53.256Z,102195.87
2018-08-19T03:15:22.141Z,102199.83
2018-08-19T03:17:51.105Z,102194.91
2018-08-19T03:20:20.183Z,102190.62
2018-08-19T03:22:48.951Z,102191.80
2018-08-19T03:25:17.787Z,102190.69
2018-08-19T03:27:46.576Z,102190.31
2018-08-19T03:30:16.319Z,102187.72
2018-08-19T03:32:51.112Z,102182.31
2018-08-19T03:35:21.330Z,102188.09
2018-08-19T03:37:53.165Z,102179.36
2018-08-19T03:40:25.087Z,102181.16
2018-08-19T03:42:54.396Z,102178.12
2018-08-19T03:45:23.544Z,102176.16
2018-08-19T03:47:52.999Z,102172.75
2018-08-19T03:50:23.285Z,102166.22
2018-08-19T03:52:52.836Z,102176.23
2018-08-19T03:55:32.368Z,102177.38
2018-08-19T03:58:05.201Z,102172.97
2018-08-19T04:00:40.650Z,102178.84
2018-08-19T04:03:20.173Z,102181.47
2018-08-19T04:05:55.311Z,102191.02
2018-08-19T04:08:34.096Z,102176.42
2018-08-19T04:11:07.872Z,102183.98
2018-08-19T04:13:38.948Z,102177.20
2018-08-19T04:16:09.533Z,102177.98
2018-08-19T04:18:41.640Z,102177.78
2018-08-19T04:21:11.633Z,102181.40
2018-08-19T04:23:46.511Z,102176.63
2018-08-19T04:26:15.420Z,102178.75
2018-08-19T04:28:45.627Z,102183.88
2018-08-19T04:31:19.867Z,102179.55
2018-08-19T04:33:49.247Z,102188.56
2018-08-19T04:36:19.414Z,102180.44
2018-08-19T04:38:48.228Z,102191.39
2018-08-19T04:41:17.404Z,102188.72
2018-08-19T04:43:46.972Z,102188.63
2018-08-19T04:46:15.931Z,102193.97
2018-08-19T04:48:46.584Z,102191.77
2018-08-19T04:51:15.441Z,102192.44
2018-08-19T04:53:44.315Z,102196.68
2018-08-19T04:56:13.112Z,102196.20
2018-08-19T04:58:41.963Z,102197.53
2018-08-19T05:01:12.549Z,102197.97
2018-08-19T05:03:44.598Z,102199.57
2018-08-19T05:06:13.452Z,102192.97
2018-08-19T05:08:42.335Z,102197.42
2018-08-19T05:11:11.170Z,102206.44
2018-08-19T05:13:39.983Z,102201.56
2018-08-19T05:16:08.783Z,102208.25
2018-08-19T05:18:37.626Z,102207.53
2018-08-19T05:21:12.053Z,102205.06
2018-08-19T05:23:40.912Z,102207.19
2018-08-19T05:26:12.031Z,102210.38
2018-08-19T05:28:41.371Z,102213.10
2018-08-19T05:31:10.199Z,102209.91
2018-08-19T05:33:42.255Z,102203.23
2018-08-19T05:36:11.195Z,102198.22
2018-08-19T05:38:40.178Z,102198.03
2018-08-19T05:41:10.700Z,102200.14
2018-08-19T05:43:39.539Z,102191.93
2018-08-19T05:46:08.375Z,102195.03
2018-08-19T05:48:37.258Z,102196.77
2018-08-19T05:51:06.216Z,102200.98
2018-08-19T05:53:35.166Z,102198.36
2018-08-19T05:56:04.077Z,102187.17
2018-08-19T05:58:32.903Z,102184.94
2018-08-19T06:01:01.898Z,102185.78
2018-08-19T06:03:30.920Z,102193.73
2018-08-19T06:05:59.896Z,102195.19
2018-08-19T06:08:28.732Z,102194.34
2018-08-19T06:10:57.733Z,102193.95
2018-08-19T06:13:28.287Z,102193.59
2018-08-19T06:15:57.231Z,102193.02
2018-08-19T06:18:26.110Z,102193.70
2018-08-19T06:20:54.963Z,102187.23
2018-08-19T06:23:23.784Z,102190.89
2018-08-19T06:25:52.996Z,102190.03
2018-08-19T06:28:21.780Z,102186.27
2018-08-19T06:30:50.902Z,102191.51
2018-08-19T06:33:19.768Z,102197.43
2018-08-19T06:35:48.616Z,102192.69
2018-08-19T06:38:17.465Z,102194.05
2018-08-19T06:40:46.353Z,102192.41
2018-08-19T06:43:15.290Z,102185.55
2018-08-19T06:45:44.115Z,102189.52
2018-08-19T06:48:12.970Z,102179.52
2018-08-19T06:50:41.887Z,102182.02
2018-08-19T06:53:15.223Z,102177.84
2018-08-19T06:55:44.137Z,102170.38
2018-08-19T06:58:13.018Z,102178.28
2018-08-19T07:00:41.943Z,102176.95
2018-08-19T07:03:10.962Z,102173.62
2018-08-19T07:05:39.760Z,102173.02
2018-08-19T07:08:08.759Z,102174.08
2018-08-19T07:10:38.828Z,102168.69
2018-08-19T07:13:14.367Z,102167.14
2018-08-19T07:15:44.063Z,102167.11
2018-08-19T07:18:15.272Z,102165.62
2018-08-19T07:20:44.578Z,102169.89
2018-08-19T07:23:13.596Z,102170.17
2018-08-19T07:25:43.747Z,102169.61
2018-08-19T07:28:14.790Z,102171.61
2018-08-19T07:30:43.775Z,102166.69
2018-08-19T07:33:13.088Z,102165.09
2018-08-19T07:35:41.958Z,102162.95
2018-08-19T07:38:11.072Z,102163.40
2018-08-19T07:40:40.190Z,102168.36
2018-08-19T07:43:09.264Z,102171.36
2018-08-19T07:45:38.475Z,102171.12
2018-08-19T07:48:08.303Z,102172.71
2018-08-19T07:50:37.130Z,102170.55
2018-08-19T07:53:06.140Z,102172.92
2018-08-19T07:55:35.002Z,102172.12
2018-08-19T07:58:03.862Z,102176.47
2018-08-19T08:00:39.364Z,102175.50
2018-08-19T08:03:08.607Z,102175.06
2018-08-19T08:05:43.010Z,102174.88
2018-08-19T08:08:11.934Z,102181.23
2018-08-19T08:10:40.968Z,102181.02
2018-08-19T08:13:11.030Z,102183.20
2018-08-19T08:15:49.322Z,102186.41
2018-08-19T08:18:18.196Z,102189.77
2018-08-19T08:20:47.143Z,102182.63
2018-08-19T08:23:20.963Z,102181.05
2018-08-19T08:25:49.924Z,102183.22
2018-08-19T08:28:19.043Z,102175.66
2018-08-19T08:30:47.869Z,102178.05
2018-08-19T08:33:17.021Z,102179.07
2018-08-19T08:35:51.582Z,102174.57
2018-08-19T08:38:20.496Z,102170.06
2018-08-19T08:40:49.352Z,102166.50
2018-08-19T08:43:18.385Z,102173.81
2018-08-19T08:45:47.447Z,102176.41
2018-08-19T08:48:16.352Z,102171.74
2018-08-19T08:50:45.268Z,102173.98
2018-08-19T08:53:14.129Z,102167.86
2018-08-19T08:55:43.136Z,102166.19
2018-08-19T08:58:12.030Z,102166.73
2018-08-19T09:00:41.003Z,102157.69
2018-08-19T09:03:10.078Z,102157.33
2018-08-19T09:05:39.025Z,102156.82
2018-08-19T09:08:08.508Z,102157.14
2018-08-19T09:10:37.667Z,102147.42
2018-08-19T09:13:06.736Z,102146.16
2018-08-19T09:15:35.596Z,102140.62
2018-08-19T09:18:04.589Z,102130.53
2018-08-19T09:20:33.507Z,102125.95
2018-08-19T09:23:02.632Z,102127.19
2018-08-19T09:25:31.424Z,102123.34
2018-08-19T09:28:00.522Z,102123.47
2018-08-19T09:30:38.437Z,102118.73
2018-08-19T09:33:07.810Z,102116.69
2018-08-19T09:35:37.864Z,102113.19
2018-08-19T09:38:22.456Z,102110.82
2018-08-19T09:40:51.555Z,102113.66
2018-08-19T09:43:20.492Z,102104.37
2018-08-19T09:45:49.328Z,102110.00
2018-08-19T09:48:18.663Z,102107.42
2018-08-19T09:50:47.463Z,102103.95
2018-08-19T09:53:16.351Z,102098.20
2018-08-19T09:55:51.700Z,102097.52
2018-08-19T09:58:21.684Z,102094.93
2018-08-19T10:00:56.078Z,102100.49
2018-08-19T10:03:25.870Z,102093.10
2018-08-19T10:05:55.219Z,102088.41
2018-08-19T10:08:24.239Z,102086.60
2018-08-19T10:10:53.037Z,102084.11
2018-08-19T10:13:21.951Z,102080.43
2018-08-19T10:15:50.799Z,102075.27
2018-08-19T10:18:19.692Z,102079.67
2018-08-19T10:20:48.567Z,102073.05
2018-08-19T10:23:17.370Z,102073.72
2018-08-19T10:25:46.264Z,102073.23
2018-08-19T10:28:15.083Z,102073.45
2018-08-19T10:30:49.749Z,102059.51
2018-08-19T10:33:21.239Z,102063.78
2018-08-19T10:35:50.436Z,102055.27
2018-08-19T10:38:19.404Z,102045.11
2018-08-19T10:40:54.685Z,102041.31
2018-08-19T10:43:23.628Z,102038.41
2018-08-19T10:45:52.536Z,102034.15
2018-08-19T10:48:21.360Z,102038.90
2018-08-19T10:50:50.320Z,102036.87
2018-08-19T10:53:25.006Z,102030.16
2018-08-19T10:55:56.844Z,102026.69
2018-08-19T10:58:25.763Z,102034.50
2018-08-19T11:00:54.757Z,102020.55
2018-08-19T11:03:23.652Z,102018.09
2018-08-19T11:05:54.268Z,102017.20
2018-08-19T11:08:23.195Z,102011.61
2018-08-19T11:10:52.119Z,102013.55
2018-08-19T11:13:23.212Z,102010.80
2018-08-19T11:15:54.163Z,102002.78
2018-08-19T11:18:48.080Z,102000.48
2018-08-19T11:21:37.284Z,102000.77
2018-08-19T11:24:30.185Z,101995.04
2018-08-19T11:27:04.531Z,101996.70
2018-08-19T11:29:40.487Z,101995.54
2018-08-19T11:32:10.606Z,101997.73
2018-08-19T11:34:39.911Z,101998.59
2018-08-19T11:37:08.840Z,101997.67
2018-08-19T11:39:44.306Z,101992.72
2018-08-19T11:42:13.250Z,102000.02
2018-08-19T11:44:42.105Z,101996.17
2018-08-19T11:47:11.255Z,101991.38
2018-08-19T11:49:40.057Z,101979.36
2018-08-19T11:52:08.957Z,101983.71
2018-08-19T11:54:37.750Z,101986.77
2018-08-19T11:58:10.339Z,101986.64
2018-08-19T12:00:45.360Z,101974.17
2018-08-19T12:03:14.535Z,101984.48
2018-08-19T12:05:43.314Z,101967.51
2018-08-19T12:08:12.175Z,101969.94
2018-08-19T12:10:40.973Z,101971.21
2018-08-19T12:13:09.793Z,101963.30
2018-08-19T12:15:38.584Z,101961.64
2018-08-19T12:18:07.461Z,101966.63
2018-08-19T12:20:36.357Z,101959.96
2018-08-19T12:23:05.881Z,101958.32
2018-08-19T12:25:34.671Z,101940.64
2018-08-19T12:28:03.748Z,101944.08
2018-08-19T12:30:32.887Z,101943.67
2018-08-19T12:33:18.463Z,101942.64
2018-08-19T12:35:47.297Z,101933.45
2018-08-19T12:38:16.185Z,101926.31
2018-08-19T12:40:47.634Z,101928.14
2018-08-19T12:43:16.696Z,101926.14
2018-08-19T12:45:51.520Z,101918.72
2018-08-19T12:48:20.411Z,101918.53
2018-08-19T12:50:53.707Z,101919.74
2018-08-19T12:53:22.662Z,101907.70
2018-08-19T12:55:51.509Z,101915.55
2018-08-19T12:58:20.360Z,101909.62
2018-08-19T13:00:49.166Z,101899.11
2018-08-19T13:03:17.987Z,101906.69
2018-08-19T13:06:01.208Z,101906.01
2018-08-19T13:08:30.036Z,101907.59
2018-08-19T13:11:04.949Z,101909.38
2018-08-19T13:13:34.017Z,101900.53
2018-08-19T13:16:03.003Z,101895.38
2018-08-19T13:18:37.368Z,101891.13
2018-08-19T13:21:11.864Z,101891.22
2018-08-19T13:23:40.670Z,101891.92
2018-08-19T13:26:09.592Z,101882.50
2018-08-19T13:28:41.692Z,101869.34
2018-08-19T13:31:10.571Z,101875.79
2018-08-19T13:33:39.404Z,101879.58
2018-08-19T13:36:08.251Z,101866.22
2018-08-19T13:38:38.980Z,101861.44
2018-08-19T13:41:08.643Z,101870.07
2018-08-19T13:43:37.912Z,101863.16
2018-08-19T13:46:06.836Z,101861.83
2018-08-19T13:48:35.641Z,101859.63
2018-08-19T13:51:04.665Z,101852.19
2018-08-19T13:53:33.483Z,101847.11
2018-08-19T13:56:02.446Z,101840.91
2018-08-19T13:58:31.267Z,101842.64
2018-08-19T14:01:00.440Z,101840.35
2018-08-19T14:03:29.297Z,101846.55
2018-08-19T14:05:58.153Z,101840.11
2018-08-19T14:08:26.956Z,101834.34
2018-08-19T14:10:55.812Z,101835.90
2018-08-19T14:13:24.653Z,101832.77
2018-08-19T14:15:53.555Z,101826.17
2018-08-19T14:18:22.354Z,101831.83
2018-08-19T14:20:51.264Z,101824.06
2018-08-19T14:23:20.071Z,101823.03
2018-08-19T14:25:49.012Z,101821.62
2018-08-19T14:28:17.843Z,101817.48
2018-08-19T14:30:46.672Z,101818.88
2018-08-19T14:33:15.461Z,101815.70
2018-08-19T14:35:44.320Z,101814.54
2018-08-19T14:38:13.120Z,101816.84
2018-08-19T14:40:42.084Z,101812.38
2018-08-19T14:43:10.880Z,101810.10
2018-08-19T14:45:39.722Z,101813.31
2018-08-19T14:48:09.044Z,101813.80
2018-08-19T14:50:39.323Z,101805.85
2018-08-19T14:53:08.257Z,101803.31
2018-08-19T14:55:37.124Z,101793.48
2018-08-19T14:58:06.012Z,101793.69
2018-08-19T15:00:34.893Z,101801.17
2018-08-19T15:03:03.729Z,101790.34
2018-08-19T15:05:32.597Z,101791.06
2018-08-19T15:08:07.240Z,101795.42
2018-08-19T15:10:36.066Z,101801.09
2018-08-19T15:13:05.066Z,101800.51
2018-08-19T15:15:33.933Z,101797.47
2018-08-19T15:18:02.769Z,101795.98
2018-08-19T15:20:34.463Z,101796.22
2018-08-19T15:23:17.500Z,101795.27
2018-08-19T15:25:46.505Z,101794.41
2018-08-19T15:28:16.040Z,101784.84
2018-08-19T15:30:45.088Z,101779.48
2018-08-19T15:33:14.888Z,101778.20
2018-08-19T15:35:43.996Z,101780.88
2018-08-19T15:38:13.126Z,101780.55
2018-08-19T15:40:45.794Z,101781.34
2018-08-19T15:43:14.759Z,101780.23
2018-08-19T15:45:49.597Z,101778.39
2018-08-19T15:48:19.528Z,101776.11
2018-08-19T15:50:50.707Z,101777.41
2018-08-19T15:53:19.555Z,101781.66
2018-08-19T15:55:48.392Z,101775.55
2018-08-19T15:58:17.275Z,101773.18
2018-08-19T16:00:46.191Z,101773.31
2018-08-19T16:03:15.091Z,101773.06
2018-08-19T16:05:43.887Z,101776.09
2018-08-19T16:08:12.830Z,101775.30
2018-08-19T16:10:42.600Z,101771.15
2018-08-19T16:13:13.120Z,101772.48
2018-08-19T16:15:43.184Z,101771.20
2018-08-19T16:18:11.996Z,101766.80
2018-08-19T16:20:45.500Z,101772.00
2018-08-19T16:23:14.376Z,101773.76
2018-08-19T16:25:43.219Z,101772.55
2018-08-19T16:28:12.036Z,101775.66
2018-08-19T16:30:40.865Z,101771.01
2018-08-19T16:33:09.879Z,101767.16
2018-08-19T16:35:38.823Z,101771.55
2018-08-19T16:38:09.671Z,101763.76
2018-08-19T16:40:38.777Z,101769.89
2018-08-19T16:43:08.459Z,101768.23
2018-08-19T16:45:38.402Z,101765.09
2018-08-19T16:48:07.842Z,101761.06
2018-08-19T16:50:37.319Z,101759.92
2018-08-19T16:53:06.618Z,101763.09
2018-08-19T16:55:35.480Z,101752.53
2018-08-19T16:58:04.407Z,101752.27
2018-08-19T17:00:33.239Z,101748.08
2018-08-19T17:03:14.568Z,101756.92
2018-08-19T17:05:43.376Z,101759.03
2018-08-19T17:08:12.238Z,101758.38
2018-08-19T17:10:41.100Z,101756.77
2018-08-19T17:13:09.907Z,101753.06
2018-08-19T17:15:38.664Z,101758.80
2018-08-19T17:18:08.171Z,101756.75
2018-08-19T17:20:36.939Z,101759.55
2018-08-19T17:23:05.882Z,101756.30
2018-08-19T17:25:34.666Z,101765.30
2018-08-19T17:28:09.824Z,101763.40
2018-08-19T17:30:38.850Z,101773.14
2018-08-19T17:33:08.899Z,101758.84
2018-08-19T17:35:39.232Z,101763.38
2018-08-19T17:38:08.397Z,101765.59
2018-08-19T17:40:37.175Z,101763.81
2018-08-19T17:43:05.967Z,101765.22
2018-08-19T17:45:34.968Z,101765.40
2018-08-19T17:48:04.256Z,101773.11
2018-08-19T17:50:33.200Z,101777.14
2018-08-19T17:53:02.651Z,101778.03
2018-08-19T17:55:31.872Z,101771.92
2018-08-19T17:58:00.821Z,101774.88
2018-08-19T18:00:29.623Z,101775.03
2018-08-19T18:02:58.422Z,101780.07
2018-08-19T18:05:27.310Z,101768.56
2018-08-19T18:07:56.990Z,101775.14
2018-08-19T18:10:25.907Z,101770.78
2018-08-19T18:12:54.671Z,101780.97
2018-08-19T18:15:23.604Z,101772.37
2018-08-19T18:17:58.949Z,101783.11
2018-08-19T18:20:34.792Z,101781.94
2018-08-19T18:23:06.951Z,101784.62
2018-08-19T18:25:35.757Z,101786.95
2018-08-19T18:28:16.660Z,101784.37
2018-08-19T18:33:46.324Z,101776.70
2018-08-19T18:36:15.150Z,101788.14
2018-08-19T18:38:43.958Z,101786.50
2018-08-19T18:41:21.132Z,101784.11
2018-08-19T18:44:00.752Z,101789.59
2018-08-19T18:46:30.088Z,101794.91
2018-08-19T18:49:14.188Z,101786.01
2018-08-19T18:51:46.844Z,101793.37
2018-08-19T18:54:29.081Z,101789.27
2018-08-19T18:56:59.676Z,101788.67
2018-08-19T18:59:28.977Z,101784.69
2018-08-19T19:02:00.410Z,101786.54
2018-08-19T19:04:29.199Z,101783.35
2018-08-19T19:06:58.220Z,101779.13
2018-08-19T19:10:03.023Z,101782.97
2018-08-19T19:12:31.900Z,101785.63
2018-08-19T19:15:00.699Z,101781.19
2018-08-19T19:17:29.543Z,101774.02
2018-08-19T19:19:58.437Z,101775.16
2018-08-19T19:22:27.203Z,101770.31
2018-08-19T19:24:56.015Z,101768.69
2018-08-19T19:27:24.814Z,101775.96
2018-08-19T19:29:59.136Z,101770.88
2018-08-19T19:32:27.939Z,101773.19
2018-08-19T19:35:05.344Z,101761.23
2018-08-19T19:37:34.411Z,101752.52
2018-08-19T19:40:08.324Z,101757.28
2018-08-19T19:42:37.215Z,101754.05
2018-08-19T19:45:06.667Z,101752.31
2018-08-19T19:47:35.474Z,101748.28
2018-08-19T19:50:05.236Z,101748.36
2018-08-19T19:52:34.183Z,101748.18
2018-08-19T19:55:03.073Z,101741.83
2018-08-19T19:57:31.971Z,101749.84
2018-08-19T20:00:00.842Z,101741.44
2018-08-19T20:02:30.518Z,101743.56
2018-08-19T20:05:00.483Z,101745.37
2018-08-19T20:07:29.298Z,101745.78
2018-08-19T20:09:58.216Z,101740.67
2018-08-19T20:12:27.419Z,101744.16
2018-08-19T20:14:57.301Z,101741.38
2018-08-19T20:17:26.076Z,101738.73
2018-08-19T20:19:54.968Z,101733.11
2018-08-19T20:22:23.917Z,101733.88
2018-08-19T20:24:52.736Z,101729.32
2018-08-19T20:27:21.532Z,101731.95
2018-08-19T20:29:52.672Z,101738.39
2018-08-19T20:32:21.538Z,101731.65
2018-08-19T20:34:50.648Z,101731.23
2018-08-19T20:37:22.841Z,101730.67
2018-08-19T20:39:52.244Z,101735.23
2018-08-19T20:42:21.124Z,101732.55
2018-08-19T20:44:50.510Z,101732.55
2018-08-19T20:47:19.730Z,101733.48
2018-08-19T20:49:50.039Z,101737.34
2018-08-19T20:52:27.669Z,101731.58
2018-08-19T20:54:56.462Z,101726.99
2018-08-19T20:57:25.389Z,101731.72
2018-08-19T20:59:54.242Z,101734.22
2018-08-19T21:02:23.052Z,101733.31
2018-08-19T21:04:51.830Z,101735.29
2018-08-19T21:07:20.676Z,101738.45
2018-08-19T21:09:49.511Z,101732.59
2018-08-19T21:12:18.347Z,101740.64
2018-08-19T21:14:47.154Z,101737.94
2018-08-19T21:17:16.001Z,101732.93
2018-08-19T21:19:44.777Z,101731.41
2018-08-19T21:22:13.780Z,101737.00
2018-08-19T21:24:42.547Z,101733.70
2018-08-19T21:27:11.393Z,101732.97
2018-08-19T21:29:40.229Z,101736.92
2018-08-19T21:32:09.058Z,101739.70
2018-08-19T21:34:37.908Z,101734.70
2018-08-19T21:37:06.777Z,101736.72
2018-08-19T21:39:35.596Z,101740.92
2018-08-19T21:42:04.812Z,101739.19
2018-08-19T21:44:33.676Z,101733.59
2018-08-19T21:47:02.954Z,101730.50
2018-08-19T21:49:31.764Z,101743.98
2018-08-19T21:52:00.593Z,101737.66
2018-08-19T21:54:29.407Z,101739.36
2018-08-19T21:56:58.203Z,101735.78
2018-08-19T21:59:27.066Z,101742.94
2018-08-19T22:01:59.648Z,101729.08
2018-08-19T22:04:29.316Z,101729.84
2018-08-19T22:06:58.131Z,101736.79
2018-08-19T22:09:36.816Z,101731.51
2018-08-19T22:12:07.383Z,101738.18
2018-08-19T22:14:36.255Z,101742.34
2018-08-19T22:17:10.917Z,101736.23
2018-08-19T22:19:40.493Z,101735.16
2018-08-19T22:22:09.735Z,101744.96
2018-08-19T22:24:38.664Z,101743.86
2018-08-19T22:27:12.999Z,101731.11
2018-08-19T22:29:41.829Z,101737.84
2018-08-19T22:32:10.678Z,101731.58
2018-08-19T22:34:39.539Z,101736.42
2018-08-19T22:37:08.743Z,101729.92
2018-08-19T22:39:40.719Z,101726.48
2018-08-19T22:42:09.544Z,101736.59
2018-08-19T22:44:38.379Z,101735.56
2018-08-19T22:47:07.241Z,101735.48
2018-08-19T22:49:36.036Z,101733.81
2018-08-19T22:52:22.385Z,101725.37
2018-08-19T22:54:54.969Z,101723.97
2018-08-19T22:57:24.155Z,101727.16
2018-08-19T22:59:52.992Z,101721.03
2018-08-19T23:02:23.114Z,101725.02
2018-08-19T23:04:53.442Z,101730.27
2018-08-19T23:07:22.243Z,101731.31
2018-08-19T23:09:53.042Z,101728.38
2018-08-19T23:12:21.849Z,101731.65
2018-08-19T23:15:07.733Z,101734.12
2018-08-19T23:17:36.566Z,101733.16
2018-08-19T23:20:05.471Z,101731.96
2018-08-19T23:22:34.527Z,101733.62
2018-08-19T23:25:03.416Z,101736.58
2018-08-19T23:27:32.181Z,101736.94
2018-08-19T23:30:01.181Z,101731.77
2018-08-19T23:32:29.959Z,101731.19
2018-08-19T23:34:58.729Z,101735.37
2018-08-19T23:37:28.027Z,101727.02
2018-08-19T23:39:56.832Z,101716.34
2018-08-19T23:42:25.755Z,101716.97
2018-08-19T23:44:54.669Z,101716.88
2018-08-19T23:47:23.434Z,101718.90
2018-08-19T23:49:52.222Z,101717.52
2018-08-19T23:52:21.177Z,101722.56
2018-08-19T23:54:49.987Z,101716.42
2018-08-19T23:57:18.857Z,101721.19
2018-08-19T23:59:47.711Z,101716.66
